Vanguard, Canada
Current Conditions -  °F | °C
As of 5:00 PM on Saturday 25 Oct 2014 (Local Time) from CYYN Reporting Station
Clear Clear  
Wind Chill: 11°   Ceiling: Unl
Heat Index: 11°   Visibility: 9mi
Dew Point: -3°   Wind: 17mph
Humidity: 38%   Direction: 110°ESE
Pressure: 29.8"   Gusts: 26mph
Location:  49.9°N, 107.3°W
Report Text: CYYN 252300Z AUTO 11015G23KT 9SM CLR 11/M03 A2980 RMK PRESFR SLP109 DENSITY ALT 2900FT
Loading
Personal Weather Stations






























Interactive Weather Map
Tropical Storm Tracking
New forecast layout! Learn more

10-Day Weather Forecast

Advertisements
Track Severe Weather on mobile